sensor_id;sensor_type;location;lat;lon;timestamp;P1;durP1;ratioP1;P2;durP2;ratioP2
29238;SDS011;16267;48.194;11.546;2022-10-17T00:00:02;7.05;;;3.53;;
29238;SDS011;16267;48.194;11.546;2022-10-17T00:02:30;5.68;;;3.03;;
29238;SDS011;16267;48.194;11.546;2022-10-17T00:04:56;6.45;;;3.67;;
29238;SDS011;16267;48.194;11.546;2022-10-17T00:07:21;6.82;;;3.33;;
29238;SDS011;16267;48.194;11.546;2022-10-17T00:09:47;9.20;;;3.75;;
29238;SDS011;16267;48.194;11.546;2022-10-17T00:12:13;18.67;;;4.20;;
29238;SDS011;16267;48.194;11.546;2022-10-17T00:14:38;8.25;;;4.65;;
29238;SDS011;16267;48.194;11.546;2022-10-17T00:17:04;5.47;;;3.85;;
29238;SDS011;16267;48.194;11.546;2022-10-17T00:19:30;5.35;;;3.90;;
29238;SDS011;16267;48.194;11.546;2022-10-17T00:21:56;8.27;;;3.47;;
29238;SDS011;16267;48.194;11.546;2022-10-17T00:24:22;6.10;;;3.78;;
29238;SDS011;16267;48.194;11.546;2022-10-17T00:26:47;6.57;;;3.65;;
29238;SDS011;16267;48.194;11.546;2022-10-17T00:29:13;6.18;;;3.60;;
29238;SDS011;16267;48.194;11.546;2022-10-17T00:31:39;10.13;;;4.00;;
29238;SDS011;16267;48.194;11.546;2022-10-17T00:34:04;6.07;;;3.63;;
29238;SDS011;16267;48.194;11.546;2022-10-17T00:36:30;7.68;;;3.83;;
29238;SDS011;16267;48.194;11.546;2022-10-17T00:38:56;9.93;;;3.38;;
29238;SDS011;16267;48.194;11.546;2022-10-17T00:41:27;33.10;;;3.97;;
29238;SDS011;16267;48.194;11.546;2022-10-17T00:46:58;9.65;;;3.47;;
29238;SDS011;16267;48.194;11.546;2022-10-17T00:49:30;5.22;;;3.33;;
29238;SDS011;16267;48.194;11.546;2022-10-17T00:52:01;12.15;;;3.83;;
29238;SDS011;16267;48.194;11.546;2022-10-17T00:54:33;6.00;;;3.90;;
29238;SDS011;16267;48.194;11.546;2022-10-17T00:57:07;5.28;;;3.47;;
29238;SDS011;16267;48.194;11.546;2022-10-17T00:59:35;8.75;;;3.90;;
29238;SDS011;16267;48.194;11.546;2022-10-17T01:02:14;5.45;;;3.50;;
29238;SDS011;16267;48.194;11.546;2022-10-17T01:04:44;6.65;;;3.30;;
29238;SDS011;16267;48.194;11.546;2022-10-17T01:07:13;8.75;;;3.47;;
29238;SDS011;16267;48.194;11.546;2022-10-17T01:09:39;4.75;;;3.28;;
29238;SDS011;16267;48.194;11.546;2022-10-17T01:15:12;8.82;;;3.75;;
29238;SDS011;16267;48.194;11.546;2022-10-17T01:32:22;6.22;;;3.45;;
29238;SDS011;16267;48.194;11.546;2022-10-17T01:35:07;4.72;;;3.67;;
29238;SDS011;16267;48.194;11.546;2022-10-17T01:37:47;7.57;;;3.38;;
29238;SDS011;16267;48.194;11.546;2022-10-17T01:42:57;7.35;;;3.53;;
29238;SDS011;16267;48.194;11.546;2022-10-17T01:45:47;6.15;;;2.95;;
29238;SDS011;16267;48.194;11.546;2022-10-17T01:48:22;12.55;;;4.10;;
29238;SDS011;16267;48.194;11.546;2022-10-17T01:50:53;9.23;;;3.80;;
29238;SDS011;16267;48.194;11.546;2022-10-17T01:53:33;11.82;;;3.72;;
29238;SDS011;16267;48.194;11.546;2022-10-17T01:56:06;5.65;;;2.90;;
29238;SDS011;16267;48.194;11.546;2022-10-17T01:58:37;7.50;;;3.05;;
29238;SDS011;16267;48.194;11.546;2022-10-17T02:01:07;7.30;;;3.30;;
29238;SDS011;16267;48.194;11.546;2022-10-17T02:03:35;8.43;;;3.58;;
29238;SDS011;16267;48.194;11.546;2022-10-17T02:06:05;6.68;;;3.33;;
29238;SDS011;16267;48.194;11.546;2022-10-17T02:08:44;9.32;;;3.78;;
29238;SDS011;16267;48.194;11.546;2022-10-17T02:11:14;11.05;;;4.18;;
29238;SDS011;16267;48.194;11.546;2022-10-17T02:14:03;7.82;;;3.47;;
29238;SDS011;16267;48.194;11.546;2022-10-17T02:17:13;7.60;;;3.67;;
29238;SDS011;16267;48.194;11.546;2022-10-17T02:25:39;5.72;;;3.00;;
29238;SDS011;16267;48.194;11.546;2022-10-17T02:31:06;9.52;;;3.08;;
29238;SDS011;16267;48.194;11.546;2022-10-17T02:33:55;7.80;;;2.97;;
29238;SDS011;16267;48.194;11.546;2022-10-17T02:36:28;5.43;;;3.03;;
29238;SDS011;16267;48.194;11.546;2022-10-17T02:38:59;5.97;;;2.85;;
29238;SDS011;16267;48.194;11.546;2022-10-17T02:41:27;3.45;;;2.80;;
29238;SDS011;16267;48.194;11.546;2022-10-17T02:43:55;6.50;;;2.83;;
29238;SDS011;16267;48.194;11.546;2022-10-17T02:46:22;8.32;;;2.60;;
29238;SDS011;16267;48.194;11.546;2022-10-17T02:48:52;4.80;;;2.80;;
29238;SDS011;16267;48.194;11.546;2022-10-17T02:51:51;7.55;;;3.00;;
29238;SDS011;16267;48.194;11.546;2022-10-17T02:54:53;6.15;;;3.05;;
29238;SDS011;16267;48.194;11.546;2022-10-17T03:00:04;11.50;;;2.58;;
29238;SDS011;16267;48.194;11.546;2022-10-17T03:02:41;5.20;;;2.42;;
29238;SDS011;16267;48.194;11.546;2022-10-17T03:05:13;9.05;;;3.03;;
29238;SDS011;16267;48.194;11.546;2022-10-17T03:07:56;4.30;;;2.92;;
29238;SDS011;16267;48.194;11.546;2022-10-17T03:10:22;4.47;;;2.78;;
29238;SDS011;16267;48.194;11.546;2022-10-17T03:12:48;6.18;;;2.78;;
29238;SDS011;16267;48.194;11.546;2022-10-17T03:15:13;6.00;;;2.40;;
29238;SDS011;16267;48.194;11.546;2022-10-17T03:17:39;6.13;;;2.90;;
29238;SDS011;16267;48.194;11.546;2022-10-17T03:20:05;7.70;;;2.88;;
29238;SDS011;16267;48.194;11.546;2022-10-17T03:22:32;8.77;;;3.38;;
29238;SDS011;16267;48.194;11.546;2022-10-17T03:24:58;6.57;;;3.08;;
29238;SDS011;16267;48.194;11.546;2022-10-17T03:27:24;11.30;;;3.67;;
29238;SDS011;16267;48.194;11.546;2022-10-17T03:29:49;4.65;;;2.70;;
29238;SDS011;16267;48.194;11.546;2022-10-17T03:32:15;5.15;;;2.78;;
29238;SDS011;16267;48.194;11.546;2022-10-17T03:34:41;6.10;;;3.10;;
29238;SDS011;16267;48.194;11.546;2022-10-17T03:37:07;5.70;;;3.00;;
29238;SDS011;16267;48.194;11.546;2022-10-17T03:39:32;5.47;;;3.00;;
29238;SDS011;16267;48.194;11.546;2022-10-17T03:41:58;5.82;;;2.90;;
29238;SDS011;16267;48.194;11.546;2022-10-17T03:44:24;9.00;;;2.90;;
29238;SDS011;16267;48.194;11.546;2022-10-17T03:46:53;8.25;;;3.80;;
29238;SDS011;16267;48.194;11.546;2022-10-17T03:49:18;5.55;;;3.10;;
29238;SDS011;16267;48.194;11.546;2022-10-17T03:51:44;5.80;;;3.30;;
29238;SDS011;16267;48.194;11.546;2022-10-17T03:54:10;6.32;;;2.80;;
29238;SDS011;16267;48.194;11.546;2022-10-17T03:56:36;6.18;;;2.92;;
29238;SDS011;16267;48.194;11.546;2022-10-17T03:59:01;3.97;;;2.53;;
29238;SDS011;16267;48.194;11.546;2022-10-17T04:01:27;11.52;;;2.45;;
29238;SDS011;16267;48.194;11.546;2022-10-17T04:03:54;6.25;;;2.80;;
29238;SDS011;16267;48.194;11.546;2022-10-17T04:06:27;3.72;;;2.20;;
29238;SDS011;16267;48.194;11.546;2022-10-17T04:08:53;13.60;;;2.93;;
29238;SDS011;16267;48.194;11.546;2022-10-17T04:11:19;5.10;;;2.20;;
29238;SDS011;16267;48.194;11.546;2022-10-17T04:13:45;8.25;;;3.08;;
29238;SDS011;16267;48.194;11.546;2022-10-17T04:16:12;8.80;;;2.70;;
29238;SDS011;16267;48.194;11.546;2022-10-17T04:18:40;4.05;;;2.60;;
29238;SDS011;16267;48.194;11.546;2022-10-17T04:21:07;4.70;;;2.40;;
29238;SDS011;16267;48.194;11.546;2022-10-17T04:23:34;4.35;;;2.78;;
29238;SDS011;16267;48.194;11.546;2022-10-17T04:26:01;6.72;;;2.50;;
29238;SDS011;16267;48.194;11.546;2022-10-17T04:28:27;4.07;;;2.55;;
29238;SDS011;16267;48.194;11.546;2022-10-17T04:30:58;5.15;;;2.30;;
29238;SDS011;16267;48.194;11.546;2022-10-17T04:33:30;9.38;;;3.13;;
29238;SDS011;16267;48.194;11.546;2022-10-17T04:36:01;7.85;;;2.60;;
29238;SDS011;16267;48.194;11.546;2022-10-17T04:38:34;4.60;;;2.67;;
29238;SDS011;16267;48.194;11.546;2022-10-17T04:41:00;6.32;;;2.78;;
29238;SDS011;16267;48.194;11.546;2022-10-17T04:43:33;4.50;;;2.53;;
29238;SDS011;16267;48.194;11.546;2022-10-17T04:46:02;5.03;;;3.13;;
29238;SDS011;16267;48.194;11.546;2022-10-17T04:48:31;10.52;;;2.53;;
29238;SDS011;16267;48.194;11.546;2022-10-17T04:50:57;6.25;;;2.65;;
29238;SDS011;16267;48.194;11.546;2022-10-17T04:53:26;6.70;;;2.65;;
29238;SDS011;16267;48.194;11.546;2022-10-17T04:55:54;6.68;;;2.90;;
29238;SDS011;16267;48.194;11.546;2022-10-17T04:58:20;6.30;;;2.60;;
29238;SDS011;16267;48.194;11.546;2022-10-17T05:00:46;8.23;;;2.95;;
29238;SDS011;16267;48.194;11.546;2022-10-17T05:03:12;7.65;;;2.38;;
29238;SDS011;16267;48.194;11.546;2022-10-17T05:05:39;6.45;;;2.50;;
29238;SDS011;16267;48.194;11.546;2022-10-17T05:08:06;13.27;;;3.28;;
29238;SDS011;16267;48.194;11.546;2022-10-17T05:10:35;6.32;;;2.63;;
29238;SDS011;16267;48.194;11.546;2022-10-17T05:13:09;5.97;;;3.25;;
29238;SDS011;16267;48.194;11.546;2022-10-17T05:15:35;9.13;;;3.85;;
29238;SDS011;16267;48.194;11.546;2022-10-17T05:18:02;6.72;;;3.55;;
29238;SDS011;16267;48.194;11.546;2022-10-17T05:20:29;6.47;;;2.97;;
29238;SDS011;16267;48.194;11.546;2022-10-17T05:22:57;10.65;;;3.80;;
29238;SDS011;16267;48.194;11.546;2022-10-17T05:25:24;9.77;;;4.03;;
29238;SDS011;16267;48.194;11.546;2022-10-17T05:27:51;5.22;;;3.92;;
29238;SDS011;16267;48.194;11.546;2022-10-17T05:30:17;9.93;;;3.45;;
29238;SDS011;16267;48.194;11.546;2022-10-17T05:32:43;5.97;;;3.25;;
29238;SDS011;16267;48.194;11.546;2022-10-17T05:35:09;5.05;;;3.45;;
29238;SDS011;16267;48.194;11.546;2022-10-17T05:37:35;10.30;;;4.43;;
29238;SDS011;16267;48.194;11.546;2022-10-17T05:40:01;8.88;;;4.78;;
29238;SDS011;16267;48.194;11.546;2022-10-17T05:42:27;10.35;;;3.85;;
29238;SDS011;16267;48.194;11.546;2022-10-17T05:44:53;4.97;;;3.17;;
29238;SDS011;16267;48.194;11.546;2022-10-17T05:47:19;6.15;;;3.58;;
29238;SDS011;16267;48.194;11.546;2022-10-17T05:49:47;7.72;;;4.05;;
29238;SDS011;16267;48.194;11.546;2022-10-17T05:52:13;6.15;;;3.85;;
29238;SDS011;16267;48.194;11.546;2022-10-17T05:54:39;10.48;;;3.67;;
29238;SDS011;16267;48.194;11.546;2022-10-17T05:57:05;4.68;;;3.60;;
29238;SDS011;16267;48.194;11.546;2022-10-17T05:59:30;7.30;;;4.03;;
29238;SDS011;16267;48.194;11.546;2022-10-17T06:01:56;10.77;;;3.20;;
29238;SDS011;16267;48.194;11.546;2022-10-17T06:04:22;12.00;;;4.32;;
29238;SDS011;16267;48.194;11.546;2022-10-17T06:06:48;9.52;;;3.80;;
29238;SDS011;16267;48.194;11.546;2022-10-17T06:09:14;7.85;;;3.17;;
29238;SDS011;16267;48.194;11.546;2022-10-17T06:11:39;12.50;;;3.90;;
29238;SDS011;16267;48.194;11.546;2022-10-17T06:14:05;10.30;;;3.75;;
29238;SDS011;16267;48.194;11.546;2022-10-17T06:16:31;6.60;;;3.63;;
29238;SDS011;16267;48.194;11.546;2022-10-17T06:18:57;7.35;;;3.72;;
29238;SDS011;16267;48.194;11.546;2022-10-17T06:21:23;4.63;;;3.60;;
29238;SDS011;16267;48.194;11.546;2022-10-17T06:23:51;7.00;;;3.60;;
29238;SDS011;16267;48.194;11.546;2022-10-17T06:26:17;5.85;;;3.35;;
29238;SDS011;16267;48.194;11.546;2022-10-17T06:28:43;8.38;;;3.63;;
29238;SDS011;16267;48.194;11.546;2022-10-17T06:31:10;9.10;;;4.85;;
29238;SDS011;16267;48.194;11.546;2022-10-17T06:33:38;8.60;;;4.68;;
29238;SDS011;16267;48.194;11.546;2022-10-17T06:36:05;10.50;;;4.40;;
29238;SDS011;16267;48.194;11.546;2022-10-17T06:38:33;11.90;;;3.90;;
29238;SDS011;16267;48.194;11.546;2022-10-17T06:41:08;6.60;;;3.95;;
29238;SDS011;16267;48.194;11.546;2022-10-17T06:43:39;11.95;;;3.90;;
29238;SDS011;16267;48.194;11.546;2022-10-17T06:46:09;9.25;;;4.30;;
29238;SDS011;16267;48.194;11.546;2022-10-17T06:48:35;5.55;;;3.80;;
29238;SDS011;16267;48.194;11.546;2022-10-17T06:51:01;6.28;;;4.32;;
29238;SDS011;16267;48.194;11.546;2022-10-17T06:53:29;7.72;;;3.92;;
29238;SDS011;16267;48.194;11.546;2022-10-17T06:55:59;7.78;;;4.20;;
29238;SDS011;16267;48.194;11.546;2022-10-17T06:58:27;8.23;;;4.07;;
29238;SDS011;16267;48.194;11.546;2022-10-17T07:01:10;9.65;;;4.38;;
29238;SDS011;16267;48.194;11.546;2022-10-17T07:03:37;8.57;;;3.83;;
29238;SDS011;16267;48.194;11.546;2022-10-17T07:06:05;9.88;;;4.38;;
29238;SDS011;16267;48.194;11.546;2022-10-17T07:08:31;10.90;;;4.47;;
29238;SDS011;16267;48.194;11.546;2022-10-17T07:10:57;11.23;;;4.60;;
29238;SDS011;16267;48.194;11.546;2022-10-17T07:13:32;10.30;;;4.63;;
29238;SDS011;16267;48.194;11.546;2022-10-17T07:15:57;17.55;;;4.38;;
29238;SDS011;16267;48.194;11.546;2022-10-17T07:18:25;10.07;;;4.22;;
29238;SDS011;16267;48.194;11.546;2022-10-17T07:20:52;5.82;;;3.92;;
29238;SDS011;16267;48.194;11.546;2022-10-17T07:23:18;7.13;;;4.13;;
29238;SDS011;16267;48.194;11.546;2022-10-17T07:25:45;12.75;;;4.50;;
29238;SDS011;16267;48.194;11.546;2022-10-17T07:28:10;10.57;;;4.70;;
29238;SDS011;16267;48.194;11.546;2022-10-17T07:30:37;25.75;;;6.28;;
29238;SDS011;16267;48.194;11.546;2022-10-17T07:33:03;10.77;;;5.53;;
29238;SDS011;16267;48.194;11.546;2022-10-17T07:35:29;17.05;;;6.50;;
29238;SDS011;16267;48.194;11.546;2022-10-17T07:37:54;14.57;;;5.28;;
29238;SDS011;16267;48.194;11.546;2022-10-17T07:40:20;12.20;;;5.28;;
29238;SDS011;16267;48.194;11.546;2022-10-17T07:42:46;8.93;;;5.82;;
29238;SDS011;16267;48.194;11.546;2022-10-17T07:45:12;9.75;;;5.90;;
29238;SDS011;16267;48.194;11.546;2022-10-17T07:47:37;11.20;;;6.18;;
29238;SDS011;16267;48.194;11.546;2022-10-17T07:50:03;13.15;;;5.70;;
29238;SDS011;16267;48.194;11.546;2022-10-17T07:52:30;15.05;;;5.10;;
29238;SDS011;16267;48.194;11.546;2022-10-17T07:54:55;16.10;;;5.53;;
29238;SDS011;16267;48.194;11.546;2022-10-17T07:57:21;14.48;;;5.53;;
29238;SDS011;16267;48.194;11.546;2022-10-17T07:59:47;11.75;;;5.10;;
29238;SDS011;16267;48.194;11.546;2022-10-17T08:02:20;8.05;;;5.15;;
29238;SDS011;16267;48.194;11.546;2022-10-17T08:04:49;16.15;;;5.40;;
29238;SDS011;16267;48.194;11.546;2022-10-17T08:07:18;11.93;;;5.47;;
29238;SDS011;16267;48.194;11.546;2022-10-17T08:09:45;16.42;;;5.07;;
29238;SDS011;16267;48.194;11.546;2022-10-17T08:12:11;16.73;;;5.65;;
29238;SDS011;16267;48.194;11.546;2022-10-17T08:14:41;7.35;;;3.88;;
29238;SDS011;16267;48.194;11.546;2022-10-17T08:17:07;8.65;;;3.65;;
29238;SDS011;16267;48.194;11.546;2022-10-17T08:19:36;8.15;;;3.80;;
29238;SDS011;16267;48.194;11.546;2022-10-17T08:22:04;10.38;;;3.70;;
29238;SDS011;16267;48.194;11.546;2022-10-17T08:24:30;7.18;;;4.10;;
29238;SDS011;16267;48.194;11.546;2022-10-17T08:26:56;5.47;;;3.40;;
29238;SDS011;16267;48.194;11.546;2022-10-17T08:29:22;6.95;;;3.20;;
29238;SDS011;16267;48.194;11.546;2022-10-17T08:31:49;9.80;;;3.50;;
29238;SDS011;16267;48.194;11.546;2022-10-17T08:34:14;4.95;;;3.13;;
29238;SDS011;16267;48.194;11.546;2022-10-17T08:36:40;5.53;;;3.33;;
29238;SDS011;16267;48.194;11.546;2022-10-17T08:39:06;7.80;;;3.30;;
29238;SDS011;16267;48.194;11.546;2022-10-17T08:44:40;11.77;;;3.45;;
29238;SDS011;16267;48.194;11.546;2022-10-17T08:47:27;5.05;;;2.72;;
29238;SDS011;16267;48.194;11.546;2022-10-17T08:50:00;9.63;;;2.83;;
29238;SDS011;16267;48.194;11.546;2022-10-17T08:52:40;6.07;;;3.28;;
29238;SDS011;16267;48.194;11.546;2022-10-17T08:55:37;6.88;;;2.90;;
29238;SDS011;16267;48.194;11.546;2022-10-17T08:58:13;7.40;;;3.10;;
29238;SDS011;16267;48.194;11.546;2022-10-17T09:00:51;10.25;;;2.92;;
29238;SDS011;16267;48.194;11.546;2022-10-17T09:06:16;4.45;;;3.05;;
29238;SDS011;16267;48.194;11.546;2022-10-17T09:12:01;8.88;;;2.80;;
29238;SDS011;16267;48.194;11.546;2022-10-17T09:17:35;9.98;;;2.70;;
29238;SDS011;16267;48.194;11.546;2022-10-17T09:20:15;6.00;;;2.30;;
29238;SDS011;16267;48.194;11.546;2022-10-17T09:22:54;8.00;;;2.50;;
29238;SDS011;16267;48.194;11.546;2022-10-17T09:25:40;11.88;;;2.88;;
29238;SDS011;16267;48.194;11.546;2022-10-17T09:30:56;5.25;;;2.88;;
29238;SDS011;16267;48.194;11.546;2022-10-17T09:33:38;5.05;;;2.50;;
29238;SDS011;16267;48.194;11.546;2022-10-17T09:36:12;6.75;;;2.97;;
29238;SDS011;16267;48.194;11.546;2022-10-17T09:38:52;8.35;;;2.70;;
29238;SDS011;16267;48.194;11.546;2022-10-17T09:41:42;9.30;;;2.88;;
29238;SDS011;16267;48.194;11.546;2022-10-17T09:49:44;7.72;;;2.72;;
29238;SDS011;16267;48.194;11.546;2022-10-17T09:52:26;8.02;;;2.67;;
29238;SDS011;16267;48.194;11.546;2022-10-17T09:55:17;8.20;;;2.47;;
29238;SDS011;16267;48.194;11.546;2022-10-17T09:58:15;7.03;;;2.60;;
29238;SDS011;16267;48.194;11.546;2022-10-17T10:00:45;7.03;;;2.72;;
29238;SDS011;16267;48.194;11.546;2022-10-17T10:03:25;15.55;;;2.72;;
29238;SDS011;16267;48.194;11.546;2022-10-17T10:05:59;8.93;;;3.00;;
29238;SDS011;16267;48.194;11.546;2022-10-17T10:08:31;7.45;;;2.75;;
29238;SDS011;16267;48.194;11.546;2022-10-17T10:11:02;12.20;;;3.25;;
29238;SDS011;16267;48.194;11.546;2022-10-17T10:13:32;4.50;;;2.50;;
29238;SDS011;16267;48.194;11.546;2022-10-17T10:18:57;5.05;;;2.25;;
29238;SDS011;16267;48.194;11.546;2022-10-17T10:21:24;5.97;;;2.35;;
29238;SDS011;16267;48.194;11.546;2022-10-17T10:26:25;7.70;;;2.60;;
29238;SDS011;16267;48.194;11.546;2022-10-17T10:28:58;5.40;;;2.63;;
29238;SDS011;16267;48.194;11.546;2022-10-17T10:31:46;3.60;;;2.13;;
29238;SDS011;16267;48.194;11.546;2022-10-17T10:36:55;5.03;;;2.15;;
29238;SDS011;16267;48.194;11.546;2022-10-17T10:42:19;4.55;;;2.38;;
29238;SDS011;16267;48.194;11.546;2022-10-17T10:45:02;5.63;;;2.00;;
29238;SDS011;16267;48.194;11.546;2022-10-17T10:48:18;10.23;;;2.80;;
29238;SDS011;16267;48.194;11.546;2022-10-17T10:50:46;4.35;;;2.00;;
29238;SDS011;16267;48.194;11.546;2022-10-17T10:56:27;7.25;;;2.13;;
29238;SDS011;16267;48.194;11.546;2022-10-17T10:59:02;6.82;;;2.08;;
29238;SDS011;16267;48.194;11.546;2022-10-17T11:04:51;3.95;;;1.80;;
29238;SDS011;16267;48.194;11.546;2022-10-17T11:07:41;5.22;;;2.15;;
29238;SDS011;16267;48.194;11.546;2022-10-17T11:10:22;3.63;;;2.03;;
29238;SDS011;16267;48.194;11.546;2022-10-17T11:13:12;5.35;;;2.20;;
29238;SDS011;16267;48.194;11.546;2022-10-17T11:16:15;4.68;;;2.92;;
29238;SDS011;16267;48.194;11.546;2022-10-17T11:21:42;6.03;;;2.10;;
29238;SDS011;16267;48.194;11.546;2022-10-17T11:25:15;3.70;;;2.30;;
29238;SDS011;16267;48.194;11.546;2022-10-17T11:27:35;7.80;;;2.42;;
29238;SDS011;16267;48.194;11.546;2022-10-17T11:30:02;8.13;;;3.40;;
29238;SDS011;16267;48.194;11.546;2022-10-17T11:35:14;7.05;;;2.90;;
29238;SDS011;16267;48.194;11.546;2022-10-17T11:41:03;8.95;;;2.60;;
29238;SDS011;16267;48.194;11.546;2022-10-17T11:43:34;5.72;;;2.10;;
29238;SDS011;16267;48.194;11.546;2022-10-17T11:46:13;6.03;;;2.33;;
29238;SDS011;16267;48.194;11.546;2022-10-17T11:51:44;12.20;;;3.67;;
29238;SDS011;16267;48.194;11.546;2022-10-17T11:54:16;4.60;;;1.83;;
29238;SDS011;16267;48.194;11.546;2022-10-17T12:05:56;4.20;;;2.05;;
29238;SDS011;16267;48.194;11.546;2022-10-17T12:14:48;10.43;;;2.13;;
29238;SDS011;16267;48.194;11.546;2022-10-17T12:16:58;7.60;;;2.15;;
29238;SDS011;16267;48.194;11.546;2022-10-17T12:19:29;7.35;;;2.17;;
29238;SDS011;16267;48.194;11.546;2022-10-17T12:22:20;7.32;;;2.42;;
29238;SDS011;16267;48.194;11.546;2022-10-17T12:35:51;7.25;;;2.22;;
29238;SDS011;16267;48.194;11.546;2022-10-17T12:44:37;3.38;;;1.95;;
29238;SDS011;16267;48.194;11.546;2022-10-17T12:49:43;4.88;;;1.90;;
29238;SDS011;16267;48.194;11.546;2022-10-17T12:52:20;10.23;;;2.90;;
29238;SDS011;16267;48.194;11.546;2022-10-17T12:55:06;11.00;;;1.52;;
29238;SDS011;16267;48.194;11.546;2022-10-17T13:03:20;2.55;;;1.50;;
29238;SDS011;16267;48.194;11.546;2022-10-17T13:05:56;3.53;;;1.40;;
29238;SDS011;16267;48.194;11.546;2022-10-17T13:08:27;5.63;;;1.30;;
29238;SDS011;16267;48.194;11.546;2022-10-17T13:10:55;3.83;;;1.50;;
29238;SDS011;16267;48.194;11.546;2022-10-17T13:13:24;6.05;;;1.60;;
29238;SDS011;16267;48.194;11.546;2022-10-17T13:16:26;4.18;;;1.58;;
29238;SDS011;16267;48.194;11.546;2022-10-17T13:18:52;5.68;;;1.70;;
29238;SDS011;16267;48.194;11.546;2022-10-17T13:21:18;3.03;;;1.60;;
29238;SDS011;16267;48.194;11.546;2022-10-17T13:23:44;7.25;;;1.50;;
29238;SDS011;16267;48.194;11.546;2022-10-17T13:26:18;4.10;;;1.70;;
29238;SDS011;16267;48.194;11.546;2022-10-17T13:29:04;2.75;;;1.40;;
29238;SDS011;16267;48.194;11.546;2022-10-17T13:31:42;2.25;;;1.58;;
29238;SDS011;16267;48.194;11.546;2022-10-17T13:34:16;5.43;;;1.70;;
29238;SDS011;16267;48.194;11.546;2022-10-17T13:36:45;5.15;;;1.60;;
29238;SDS011;16267;48.194;11.546;2022-10-17T13:39:16;3.45;;;1.58;;
29238;SDS011;16267;48.194;11.546;2022-10-17T13:41:45;3.88;;;1.40;;
29238;SDS011;16267;48.194;11.546;2022-10-17T13:44:13;5.80;;;1.65;;
29238;SDS011;16267;48.194;11.546;2022-10-17T13:46:43;2.40;;;1.50;;
29238;SDS011;16267;48.194;11.546;2022-10-17T13:49:11;2.85;;;1.50;;
29238;SDS011;16267;48.194;11.546;2022-10-17T13:51:59;4.35;;;1.50;;
29238;SDS011;16267;48.194;11.546;2022-10-17T13:54:33;3.25;;;1.52;;
29238;SDS011;16267;48.194;11.546;2022-10-17T13:57:05;5.10;;;1.40;;
29238;SDS011;16267;48.194;11.546;2022-10-17T14:00:05;7.03;;;1.40;;
29238;SDS011;16267;48.194;11.546;2022-10-17T14:02:41;2.45;;;1.40;;
29238;SDS011;16267;48.194;11.546;2022-10-17T14:10:32;7.70;;;1.48;;
29238;SDS011;16267;48.194;11.546;2022-10-17T14:13:01;5.50;;;1.80;;
29238;SDS011;16267;48.194;11.546;2022-10-17T14:15:30;2.75;;;1.60;;
29238;SDS011;16267;48.194;11.546;2022-10-17T14:18:06;6.25;;;1.40;;
29238;SDS011;16267;48.194;11.546;2022-10-17T14:20:33;4.82;;;1.88;;
29238;SDS011;16267;48.194;11.546;2022-10-17T14:23:01;5.00;;;1.40;;
29238;SDS011;16267;48.194;11.546;2022-10-17T14:25:28;2.80;;;1.60;;
29238;SDS011;16267;48.194;11.546;2022-10-17T14:30:43;9.82;;;2.13;;
29238;SDS011;16267;48.194;11.546;2022-10-17T14:33:22;4.40;;;1.90;;
29238;SDS011;16267;48.194;11.546;2022-10-17T14:35:55;2.28;;;1.70;;
29238;SDS011;16267;48.194;11.546;2022-10-17T14:38:24;3.08;;;1.50;;
29238;SDS011;16267;48.194;11.546;2022-10-17T14:40:52;2.10;;;1.35;;
29238;SDS011;16267;48.194;11.546;2022-10-17T14:43:53;3.28;;;1.60;;
29238;SDS011;16267;48.194;11.546;2022-10-17T14:46:24;4.60;;;1.63;;
29238;SDS011;16267;48.194;11.546;2022-10-17T14:48:55;2.38;;;1.50;;
29238;SDS011;16267;48.194;11.546;2022-10-17T14:51:28;3.95;;;1.38;;
29238;SDS011;16267;48.194;11.546;2022-10-17T14:54:04;6.65;;;1.75;;
29238;SDS011;16267;48.194;11.546;2022-10-17T14:56:49;4.63;;;1.45;;
29238;SDS011;16267;48.194;11.546;2022-10-17T14:59:17;4.03;;;1.70;;
29238;SDS011;16267;48.194;11.546;2022-10-17T15:01:49;3.38;;;1.70;;
29238;SDS011;16267;48.194;11.546;2022-10-17T15:04:16;3.55;;;1.70;;
29238;SDS011;16267;48.194;11.546;2022-10-17T15:06:42;3.42;;;1.55;;
29238;SDS011;16267;48.194;11.546;2022-10-17T15:09:09;4.47;;;1.70;;
29238;SDS011;16267;48.194;11.546;2022-10-17T15:11:36;4.05;;;1.65;;
29238;SDS011;16267;48.194;11.546;2022-10-17T15:14:02;3.00;;;1.70;;
29238;SDS011;16267;48.194;11.546;2022-10-17T15:16:31;3.65;;;1.70;;
29238;SDS011;16267;48.194;11.546;2022-10-17T15:18:59;5.97;;;1.65;;
29238;SDS011;16267;48.194;11.546;2022-10-17T15:21:26;4.30;;;1.70;;
29238;SDS011;16267;48.194;11.546;2022-10-17T15:23:53;5.75;;;1.70;;
29238;SDS011;16267;48.194;11.546;2022-10-17T15:26:20;4.88;;;1.42;;
29238;SDS011;16267;48.194;11.546;2022-10-17T15:28:49;5.10;;;1.52;;
29238;SDS011;16267;48.194;11.546;2022-10-17T15:31:17;3.85;;;1.30;;
29238;SDS011;16267;48.194;11.546;2022-10-17T15:33:46;3.25;;;2.00;;
29238;SDS011;16267;48.194;11.546;2022-10-17T15:36:17;6.13;;;1.60;;
29238;SDS011;16267;48.194;11.546;2022-10-17T15:38:48;7.80;;;1.95;;
29238;SDS011;16267;48.194;11.546;2022-10-17T15:41:16;1.90;;;1.40;;
29238;SDS011;16267;48.194;11.546;2022-10-17T15:43:42;3.63;;;1.83;;
29238;SDS011;16267;48.194;11.546;2022-10-17T15:46:12;4.65;;;1.75;;
29238;SDS011;16267;48.194;11.546;2022-10-17T15:48:48;4.60;;;1.55;;
29238;SDS011;16267;48.194;11.546;2022-10-17T15:51:14;55.00;;;22.63;;
29238;SDS011;16267;48.194;11.546;2022-10-17T15:53:40;38.88;;;24.17;;
29238;SDS011;16267;48.194;11.546;2022-10-17T15:56:06;51.92;;;23.85;;
29238;SDS011;16267;48.194;11.546;2022-10-17T15:58:39;34.58;;;16.55;;
29238;SDS011;16267;48.194;11.546;2022-10-17T16:01:05;27.15;;;13.93;;
29238;SDS011;16267;48.194;11.546;2022-10-17T16:03:31;19.50;;;12.40;;
29238;SDS011;16267;48.194;11.546;2022-10-17T16:05:58;6.35;;;3.67;;
29238;SDS011;16267;48.194;11.546;2022-10-17T16:08:23;26.33;;;14.13;;
29238;SDS011;16267;48.194;11.546;2022-10-17T16:10:50;13.93;;;7.72;;
29238;SDS011;16267;48.194;11.546;2022-10-17T16:13:17;12.48;;;6.90;;
29238;SDS011;16267;48.194;11.546;2022-10-17T16:15:45;4.97;;;2.30;;
29238;SDS011;16267;48.194;11.546;2022-10-17T16:18:11;4.50;;;2.45;;
29238;SDS011;16267;48.194;11.546;2022-10-17T16:20:37;5.47;;;2.45;;
29238;SDS011;16267;48.194;11.546;2022-10-17T16:23:03;5.30;;;3.40;;
29238;SDS011;16267;48.194;11.546;2022-10-17T16:25:30;10.07;;;4.00;;
29238;SDS011;16267;48.194;11.546;2022-10-17T16:27:57;8.63;;;4.40;;
29238;SDS011;16267;48.194;11.546;2022-10-17T16:30:25;8.73;;;3.60;;
29238;SDS011;16267;48.194;11.546;2022-10-17T16:32:54;10.07;;;6.50;;
29238;SDS011;16267;48.194;11.546;2022-10-17T16:35:21;31.42;;;15.20;;
29238;SDS011;16267;48.194;11.546;2022-10-17T16:37:54;33.10;;;16.98;;
29238;SDS011;16267;48.194;11.546;2022-10-17T16:40:21;24.60;;;12.52;;
29238;SDS011;16267;48.194;11.546;2022-10-17T16:42:48;27.30;;;14.02;;
29238;SDS011;16267;48.194;11.546;2022-10-17T16:45:16;23.05;;;11.02;;
29238;SDS011;16267;48.194;11.546;2022-10-17T16:47:45;25.77;;;9.52;;
29238;SDS011;16267;48.194;11.546;2022-10-17T16:50:12;10.23;;;5.18;;
29238;SDS011;16267;48.194;11.546;2022-10-17T16:52:39;11.45;;;4.85;;
29238;SDS011;16267;48.194;11.546;2022-10-17T16:55:05;10.52;;;5.32;;
29238;SDS011;16267;48.194;11.546;2022-10-17T16:57:31;14.35;;;6.80;;
29238;SDS011;16267;48.194;11.546;2022-10-17T16:59:57;19.98;;;9.23;;
29238;SDS011;16267;48.194;11.546;2022-10-17T17:02:23;12.77;;;6.82;;
29238;SDS011;16267;48.194;11.546;2022-10-17T17:04:49;14.15;;;6.90;;